Time,TemperatureF,DewpointF,PressureIn,WindDirection,WindDirectionDegrees,WindSpeedMPH,WindSpeedGustMPH,Humidity,HourlyPrecipIn,Conditions,Clouds,dailyrainin,SoftwareType,DateUTC
2013-01-11 00:00:00,36.5,26.2,30.54,NW,306,0.0,2.0,66,0.00,,,0.00,Wunderground v.1.13,2013-01-11 05:00:00,
2013-01-11 00:05:00,36.5,26.2,30.53,NW,306,0.0,2.0,66,0.00,,,0.00,Wunderground v.1.13,2013-01-11 05:05:00,
2013-01-11 00:10:00,36.5,26.2,30.54,NW,306,0.0,2.0,66,0.00,,,0.00,Wunderground v.1.13,2013-01-11 05:10:00,
2013-01-11 00:15:00,37.0,26.7,30.53,NW,306,0.0,2.0,66,0.00,,,0.00,Wunderground v.1.13,2013-01-11 05:15:00,
2013-01-11 00:25:00,37.3,27.3,30.52,NW,306,0.0,2.0,67,0.00,,,0.00,Wunderground v.1.13,2013-01-11 05:25:00,
2013-01-11 00:30:00,37.2,27.6,30.52,NW,306,0.0,2.0,68,0.00,,,0.00,Wunderground v.1.13,2013-01-11 05:30:00,
2013-01-11 00:40:00,38.2,29.3,30.51,ENE,77,0.0,4.0,70,0.00,,,0.00,Wunderground v.1.13,2013-01-11 05:40:00,
2013-01-11 00:45:00,39.8,30.5,30.52,East,87,1.0,2.0,69,0.00,,,0.00,Wunderground v.1.13,2013-01-11 05:45:00,
2013-01-11 00:55:00,40.9,29.7,30.52,NNW,329,1.0,1.0,64,0.00,,,0.00,Wunderground v.1.13,2013-01-11 05:55:00,
2013-01-11 01:05:00,41.2,28.8,30.52,ESE,103,1.0,1.0,61,0.00,,,0.00,Wunderground v.1.13,2013-01-11 06:05:00,
2013-01-11 01:10:00,41.3,28.9,30.52,ENE,65,1.0,4.0,61,0.00,,,0.00,Wunderground v.1.13,2013-01-11 06:10:00,
2013-01-11 01:15:00,41.3,28.9,30.52,ENE,66,1.0,1.0,61,0.00,,,0.00,Wunderground v.1.13,2013-01-11 06:15:00,
2013-01-11 01:25:00,41.5,29.0,30.52,NE,42,1.0,1.0,61,0.00,,,0.00,Wunderground v.1.13,2013-01-11 06:25:00,
2013-01-11 01:30:00,41.5,29.0,30.51,NE,42,0.0,4.0,61,0.00,,,0.00,Wunderground v.1.13,2013-01-11 06:30:00,
2013-01-11 01:40:00,41.3,28.9,30.51,NNE,21,1.0,1.0,61,0.00,,,0.00,Wunderground v.1.13,2013-01-11 06:40:00,
2013-01-11 01:45:00,41.3,28.9,30.52,ENE,74,1.0,1.0,61,0.00,,,0.00,Wunderground v.1.13,2013-01-11 06:45:00,
2013-01-11 01:55:00,41.5,29.0,30.51,ENE,64,1.0,1.0,61,0.00,,,0.00,Wunderground v.1.13,2013-01-11 06:55:00,
2013-01-11 02:05:00,41.5,29.0,30.51,ENE,64,1.0,1.0,61,0.00,,,0.00,Wunderground v.1.13,2013-01-11 07:05:00,
2013-01-11 02:15:00,41.5,29.0,30.51,ENE,59,1.0,7.0,61,0.00,,,0.00,Wunderground v.1.13,2013-01-11 07:15:00,
2013-01-11 02:20:00,41.6,28.7,30.51,ESE,107,2.0,6.0,60,0.00,,,0.00,Wunderground v.1.13,2013-01-11 07:20:00,
2013-01-11 02:25:00,41.6,28.7,30.51,East,87,2.0,2.0,60,0.00,,,0.00,Wunderground v.1.13,2013-01-11 07:25:00,
2013-01-11 02:35:00,41.6,28.7,30.51,ENE,59,2.0,2.0,60,0.00,,,0.00,Wunderground v.1.13,2013-01-11 07:35:00,
2013-01-11 02:45:00,41.5,29.0,30.50,ENE,61,2.0,2.0,61,0.00,,,0.00,Wunderground v.1.13,2013-01-11 07:45:00,
2013-01-11 02:55:00,41.3,29.3,30.50,East,96,1.0,1.0,62,0.00,,,0.00,Wunderground v.1.13,2013-01-11 07:55:00,
2013-01-11 03:00:00,41.3,29.3,30.49,NE,48,1.0,1.0,62,0.00,,,0.00,Wunderground v.1.13,2013-01-11 08:00:00,
2013-01-11 03:10:00,41.2,29.5,30.50,East,86,1.0,1.0,63,0.00,,,0.00,Wunderground v.1.13,2013-01-11 08:10:00,
2013-01-11 03:15:00,41.1,29.8,30.49,East,86,1.0,1.0,64,0.00,,,0.00,Wunderground v.1.13,2013-01-11 08:15:00,
2013-01-11 03:25:00,41.1,29.8,30.49,West,261,1.0,1.0,64,0.00,,,0.00,Wunderground v.1.13,2013-01-11 08:25:00,
2013-01-11 03:35:00,40.8,29.6,30.48,ESE,111,1.0,5.0,64,0.00,,,0.00,Wunderground v.1.13,2013-01-11 08:35:00,
2013-01-11 03:40:00,40.9,30.0,30.48,East,81,2.0,5.0,65,0.00,,,0.00,Wunderground v.1.13,2013-01-11 08:40:00,
2013-01-11 03:50:00,40.8,30.3,30.47,ENE,78,1.0,6.0,66,0.00,,,0.00,Wunderground v.1.13,2013-01-11 08:50:00,
2013-01-11 03:55:00,40.9,30.4,30.48,ESE,103,2.0,6.0,66,0.00,,,0.00,Wunderground v.1.13,2013-01-11 08:55:00,
2013-01-11 04:05:00,41.1,30.6,30.47,ESE,102,2.0,7.0,66,0.00,,,0.00,Wunderground v.1.13,2013-01-11 09:05:00,
2013-01-11 04:15:00,41.2,31.1,30.45,East,88,2.0,2.0,67,0.00,,,0.00,Wunderground v.1.13,2013-01-11 09:15:00,
2013-01-11 04:20:00,41.3,31.2,30.46,SE,124,3.0,6.0,67,0.00,,,0.00,Wunderground v.1.13,2013-01-11 09:20:00,
2013-01-11 04:30:00,41.3,31.2,30.46,East,90,2.0,6.0,67,0.00,,,0.00,Wunderground v.1.13,2013-01-11 09:30:00,
2013-01-11 04:40:00,41.2,31.4,30.45,East,96,1.0,1.0,68,0.00,,,0.00,Wunderground v.1.13,2013-01-11 09:40:00,
2013-01-11 04:45:00,41.3,31.5,30.46,East,84,1.0,1.0,68,0.00,,,0.00,Wunderground v.1.13,2013-01-11 09:45:00,
2013-01-11 04:55:00,41.3,31.9,30.47,East,84,1.0,1.0,69,0.00,,,0.00,Wunderground v.1.13,2013-01-11 09:55:00,
2013-01-11 05:05:00,41.3,32.2,30.45,East,94,1.0,5.0,70,0.00,,,0.00,Wunderground v.1.13,2013-01-11 10:05:00,
2013-01-11 05:10:00,41.3,32.2,30.47,East,94,1.0,1.0,70,0.00,,,0.00,Wunderground v.1.13,2013-01-11 10:10:00,
2013-01-11 05:20:00,41.2,32.2,30.47,East,94,0.0,3.0,70,0.00,,,0.00,Wunderground v.1.13,2013-01-11 10:20:00,
2013-01-11 05:30:00,41.1,32.4,30.47,East,94,0.0,3.0,71,0.00,,,0.00,Wunderground v.1.13,2013-01-11 10:30:00,
2013-01-11 05:35:00,40.9,32.2,30.47,East,94,0.0,3.0,71,0.00,,,0.00,Wunderground v.1.13,2013-01-11 10:35:00,
2013-01-11 05:45:00,40.5,32.2,30.48,East,94,0.0,3.0,72,0.00,,,0.00,Wunderground v.1.13,2013-01-11 10:45:00,
2013-01-11 05:55:00,39.5,31.9,30.48,East,94,0.0,0.0,74,0.00,,,0.00,Wunderground v.1.13,2013-01-11 10:55:00,
2013-01-11 06:05:00,38.8,31.6,30.47,East,94,0.0,1.0,75,0.00,,,0.00,Wunderground v.1.13,2013-01-11 11:05:00,
2013-01-11 06:10:00,38.2,31.3,30.48,East,94,0.0,1.0,76,0.00,,,0.00,Wunderground v.1.13,2013-01-11 11:10:00,
2013-01-11 06:20:00,37.5,30.9,30.47,East,94,0.0,1.0,77,0.00,,,0.00,Wunderground v.1.13,2013-01-11 11:20:00,
2013-01-11 06:30:00,37.2,31.0,30.48,East,94,0.0,1.0,78,0.00,,,0.00,Wunderground v.1.13,2013-01-11 11:30:00,
2013-01-11 06:35:00,37.0,31.1,30.48,East,94,0.0,0.0,79,0.00,,,0.00,Wunderground v.1.13,2013-01-11 11:35:00,
2013-01-11 06:45:00,36.9,31.0,30.48,East,93,0.0,0.0,79,0.00,,,0.00,Wunderground v.1.13,2013-01-11 11:45:00,
2013-01-11 06:50:00,37.5,31.9,30.47,East,93,0.0,0.0,80,0.00,,,0.00,Wunderground v.1.13,2013-01-11 11:50:00,
2013-01-11 07:00:00,39.6,33.6,30.47,ESE,119,0.0,2.0,79,0.00,,,0.00,Wunderground v.1.13,2013-01-11 12:00:00,
2013-01-11 07:10:00,41.3,34.3,30.46,ESE,119,1.0,4.0,76,0.00,,,0.00,Wunderground v.1.13,2013-01-11 12:10:00,
2013-01-11 07:20:00,42.1,34.4,30.47,ESE,119,1.0,1.0,74,0.00,,,0.00,Wunderground v.1.13,2013-01-11 12:20:00,
2013-01-11 07:25:00,42.1,34.1,30.47,ESE,119,0.0,3.0,73,0.00,,,0.00,Wunderground v.1.13,2013-01-11 12:25:00,
2013-01-11 07:35:00,41.9,34.2,30.48,ESE,119,0.0,2.0,74,0.00,,,0.00,Wunderground v.1.13,2013-01-11 12:35:00,
2013-01-11 07:45:00,41.8,34.1,30.47,ESE,119,0.0,2.0,74,0.00,,,0.00,Wunderground v.1.13,2013-01-11 12:45:00,
2013-01-11 07:50:00,41.9,34.2,30.46,ESE,119,0.0,1.0,74,0.00,,,0.00,Wunderground v.1.13,2013-01-11 12:50:00,
2013-01-11 08:00:00,42.1,34.4,30.47,ESE,119,0.0,1.0,74,0.00,,,0.00,Wunderground v.1.13,2013-01-11 13:00:00,
2013-01-11 08:05:00,42.2,34.5,30.47,ESE,119,0.0,2.0,74,0.00,,,0.00,Wunderground v.1.13,2013-01-11 13:05:00,
2013-01-11 08:15:00,42.3,34.9,30.46,ESE,119,1.0,2.0,75,0.00,,,0.00,Wunderground v.1.13,2013-01-11 13:15:00,
2013-01-11 08:25:00,42.6,35.2,30.45,ESE,121,1.0,1.0,75,0.00,,,0.00,Wunderground v.1.13,2013-01-11 13:25:00,
2013-01-11 08:30:00,42.8,35.4,30.44,East,90,2.0,3.0,75,0.00,,,0.00,Wunderground v.1.13,2013-01-11 13:30:00,
2013-01-11 08:40:00,43.2,35.5,30.45,East,92,2.0,4.0,74,0.00,,,0.00,Wunderground v.1.13,2013-01-11 13:40:00,
2013-01-11 08:50:00,43.5,35.8,30.45,East,94,2.0,5.0,74,0.00,,,0.00,Wunderground v.1.13,2013-01-11 13:50:00,
2013-01-11 09:00:00,43.6,35.9,30.46,ESE,103,1.0,5.0,74,0.00,,,0.00,Wunderground v.1.13,2013-01-11 14:00:00,
2013-01-11 09:05:00,43.8,36.0,30.46,East,90,1.0,4.0,74,0.00,,,0.00,Wunderground v.1.13,2013-01-11 14:05:00,
2013-01-11 09:15:00,44.1,36.3,30.45,ESE,107,1.0,4.0,74,0.00,,,0.00,Wunderground v.1.13,2013-01-11 14:15:00,
2013-01-11 09:20:00,44.1,36.3,30.46,ESE,118,2.0,5.0,74,0.00,,,0.00,Wunderground v.1.13,2013-01-11 14:20:00,
2013-01-11 09:30:00,44.3,36.2,30.46,ESE,103,1.0,5.0,73,0.00,,,0.00,Wunderground v.1.13,2013-01-11 14:30:00,
2013-01-11 09:40:00,44.5,36.4,30.45,East,90,1.0,1.0,73,0.00,,,0.00,Wunderground v.1.13,2013-01-11 14:40:00,
2013-01-11 09:45:00,44.5,36.4,30.45,East,88,1.0,4.0,73,0.00,,,0.00,Wunderground v.1.13,2013-01-11 14:45:00,
2013-01-11 09:55:00,44.6,36.5,30.44,ESE,123,1.0,5.0,73,0.00,,,0.00,Wunderground v.1.13,2013-01-11 14:55:00,
2013-01-11 10:05:00,44.6,36.8,30.44,ESE,116,1.0,1.0,74,0.00,,,0.00,Wunderground v.1.13,2013-01-11 15:05:00,
2013-01-11 10:10:00,44.6,36.8,30.45,ESE,106,1.0,1.0,74,0.00,,,0.00,Wunderground v.1.13,2013-01-11 15:10:00,
2013-01-11 10:20:00,44.6,36.8,30.44,ESE,106,1.0,4.0,74,0.00,,,0.00,Wunderground v.1.13,2013-01-11 15:20:00,
2013-01-11 10:25:00,44.5,36.7,30.44,East,99,1.0,1.0,74,0.00,,,0.00,Wunderground v.1.13,2013-01-11 15:25:00,
2013-01-11 10:35:00,44.6,36.8,30.43,East,101,1.0,1.0,74,0.00,,,0.00,Wunderground v.1.13,2013-01-11 15:35:00,
2013-01-11 10:45:00,44.9,37.1,30.43,East,94,2.0,2.0,74,0.00,,,0.00,Wunderground v.1.13,2013-01-11 15:45:00,
2013-01-11 10:50:00,45.2,37.4,30.42,East,88,2.0,2.0,74,0.00,,,0.00,Wunderground v.1.13,2013-01-11 15:50:00,
2013-01-11 11:00:00,45.8,37.6,30.42,East,95,1.0,5.0,73,0.00,,,0.00,Wunderground v.1.13,2013-01-11 16:00:00,
2013-01-11 11:05:00,46.1,37.9,30.41,East,96,1.0,5.0,73,0.00,,,0.00,Wunderground v.1.13,2013-01-11 16:05:00,
2013-01-11 11:15:00,46.4,37.5,30.38,SSE,147,2.0,5.0,71,0.00,,,0.00,Wunderground v.1.13,2013-01-11 16:15:00,
2013-01-11 11:20:00,46.4,37.5,30.37,SE,126,3.0,3.0,71,0.00,,,0.00,Wunderground v.1.13,2013-01-11 16:20:00,
2013-01-11 11:30:00,46.4,37.5,30.38,East,88,2.0,2.0,71,0.00,,,0.00,Wunderground v.1.13,2013-01-11 16:30:00,
2013-01-11 11:35:00,46.7,37.8,30.38,SSE,167,2.0,6.0,71,0.00,,,0.00,Wunderground v.1.13,2013-01-11 16:35:00,
2013-01-11 11:45:00,46.5,37.6,30.37,ESE,112,2.0,6.0,71,0.00,,,0.00,Wunderground v.1.13,2013-01-11 16:45:00,
2013-01-11 11:50:00,46.5,37.6,30.37,ESE,111,2.0,7.0,71,0.00,,,0.00,Wunderground v.1.13,2013-01-11 16:50:00,
2013-01-11 12:00:00,47.0,38.1,30.36,East,87,2.0,7.0,71,0.00,,,0.00,Wunderground v.1.13,2013-01-11 17:00:00,
2013-01-11 12:05:00,47.4,38.5,30.36,East,98,2.0,6.0,71,0.00,,,0.00,Wunderground v.1.13,2013-01-11 17:05:00,
2013-01-11 12:10:00,47.3,38.0,30.35,SE,129,2.0,6.0,70,0.00,,,0.00,Wunderground v.1.13,2013-01-11 17:10:00,
2013-01-11 12:20:00,47.1,38.2,30.35,SE,132,2.0,7.0,71,0.00,,,0.00,Wunderground v.1.13,2013-01-11 17:20:00,
2013-01-11 12:25:00,47.1,38.5,30.34,SE,144,2.0,2.0,72,0.00,,,0.00,Wunderground v.1.13,2013-01-11 17:25:00,
2013-01-11 12:35:00,47.4,38.5,30.34,ESE,102,1.0,4.0,71,0.00,,,0.00,Wunderground v.1.13,2013-01-11 17:35:00,
2013-01-11 12:40:00,47.3,38.7,30.33,SE,130,1.0,4.0,72,0.00,,,0.00,Wunderground v.1.13,2013-01-11 17:40:00,
2013-01-11 12:50:00,47.1,39.2,30.33,SE,144,2.0,2.0,74,0.00,,,0.00,Wunderground v.1.13,2013-01-11 17:50:00,
2013-01-11 12:55:00,47.0,39.5,30.33,SE,128,1.0,1.0,75,0.00,,,0.00,Wunderground v.1.13,2013-01-11 17:55:00,
2013-01-11 13:05:00,46.8,40.0,30.34,SE,128,1.0,1.0,77,0.00,,,0.00,Wunderground v.1.13,2013-01-11 18:05:00,
2013-01-11 13:10:00,46.7,40.2,30.33,SE,128,1.0,4.0,78,0.00,,,0.00,Wunderground v.1.13,2013-01-11 18:10:00,
2013-01-11 13:15:00,46.7,40.2,30.32,ESE,102,1.0,5.0,78,0.00,,,0.00,Wunderground v.1.13,2013-01-11 18:15:00,
2013-01-11 13:25:00,47.1,40.9,30.33,ENE,78,1.0,5.0,79,0.00,,,0.00,Wunderground v.1.13,2013-01-11 18:25:00,
2013-01-11 13:30:00,47.4,41.2,30.32,East,100,1.0,1.0,79,0.00,,,0.00,Wunderground v.1.13,2013-01-11 18:30:00,
2013-01-11 13:40:00,47.7,41.2,30.32,ESE,113,2.0,2.0,78,0.00,,,0.00,Wunderground v.1.13,2013-01-11 18:40:00,
2013-01-11 13:45:00,47.9,41.0,30.33,South,172,1.0,1.0,77,0.00,,,0.00,Wunderground v.1.13,2013-01-11 18:45:00,
2013-01-11 13:55:00,47.9,40.7,30.32,SSE,153,1.0,1.0,76,0.00,,,0.00,Wunderground v.1.13,2013-01-11 18:55:00,
2013-01-11 14:00:00,47.7,40.8,30.31,SSE,153,1.0,1.0,77,0.00,,,0.00,Wunderground v.1.13,2013-01-11 19:00:00,
2013-01-11 14:10:00,47.4,40.6,30.32,SE,144,1.0,6.0,77,0.00,,,0.00,Wunderground v.1.13,2013-01-11 19:10:00,
2013-01-11 14:20:00,47.1,40.6,30.31,East,91,1.0,1.0,78,0.00,,,0.00,Wunderground v.1.13,2013-01-11 19:20:00,
2013-01-11 14:25:00,47.3,40.8,30.31,East,91,1.0,1.0,78,0.00,,,0.00,Wunderground v.1.13,2013-01-11 19:25:00,
2013-01-11 14:35:00,47.3,41.1,30.30,SE,140,1.0,1.0,79,0.00,,,0.00,Wunderground v.1.13,2013-01-11 19:35:00,
2013-01-11 14:45:00,47.1,41.2,30.30,SE,143,1.0,1.0,80,0.00,,,0.00,Wunderground v.1.13,2013-01-11 19:45:00,
2013-01-11 14:55:00,47.0,41.8,30.28,East,99,1.0,5.0,82,0.00,,,0.00,Wunderground v.1.13,2013-01-11 19:55:00,
2013-01-11 15:00:00,46.7,41.8,30.28,ESE,102,1.0,1.0,83,0.00,,,0.00,Wunderground v.1.13,2013-01-11 20:00:00,
2013-01-11 15:10:00,46.5,41.9,30.27,ESE,112,0.0,5.0,84,0.00,,,0.01,Wunderground v.1.13,2013-01-11 20:10:00,
2013-01-11 15:20:00,46.4,42.1,30.27,ESE,123,0.0,3.0,85,0.00,,,0.01,Wunderground v.1.13,2013-01-11 20:20:00,
2013-01-11 15:25:00,46.4,42.1,30.27,ESE,123,0.0,3.0,85,0.00,,,0.01,Wunderground v.1.13,2013-01-11 20:25:00,
2013-01-11 15:35:00,46.5,42.5,30.27,SSE,163,0.0,3.0,86,0.00,,,0.01,Wunderground v.1.13,2013-01-11 20:35:00,
2013-01-11 15:45:00,46.7,42.7,30.27,SSE,163,0.0,3.0,86,0.00,,,0.01,Wunderground v.1.13,2013-01-11 20:45:00,
2013-01-11 15:50:00,46.7,42.7,30.27,SSE,163,0.0,4.0,86,0.00,,,0.01,Wunderground v.1.13,2013-01-11 20:50:00,
2013-01-11 16:00:00,46.8,42.8,30.26,SSE,163,0.0,4.0,86,0.00,,,0.01,Wunderground v.1.13,2013-01-11 21:00:00,
2013-01-11 16:10:00,46.8,43.1,30.25,South,191,1.0,1.0,87,0.00,,,0.02,Wunderground v.1.13,2013-01-11 21:10:00,
2013-01-11 16:15:00,46.8,43.1,30.25,ESE,121,1.0,1.0,87,0.00,,,0.02,Wunderground v.1.13,2013-01-11 21:15:00,
2013-01-11 16:25:00,46.8,43.4,30.26,SE,146,0.0,6.0,88,0.00,,,0.02,Wunderground v.1.13,2013-01-11 21:25:00,
2013-01-11 16:35:00,46.8,43.4,30.26,South,175,1.0,1.0,88,0.00,,,0.02,Wunderground v.1.13,2013-01-11 21:35:00,
2013-01-11 16:40:00,46.7,43.3,30.26,South,175,1.0,1.0,88,0.00,,,0.02,Wunderground v.1.13,2013-01-11 21:40:00,
2013-01-11 16:50:00,46.8,43.4,30.25,South,175,1.0,1.0,88,0.00,,,0.02,Wunderground v.1.13,2013-01-11 21:50:00,
2013-01-11 16:55:00,46.8,43.4,30.25,South,169,1.0,1.0,88,0.00,,,0.03,Wunderground v.1.13,2013-01-11 21:55:00,
2013-01-11 17:05:00,46.7,43.6,30.25,South,169,0.0,3.0,89,0.00,,,0.03,Wunderground v.1.13,2013-01-11 22:05:00,
2013-01-11 17:10:00,46.5,43.4,30.25,South,169,0.0,3.0,89,0.00,,,0.03,Wunderground v.1.13,2013-01-11 22:10:00,
2013-01-11 17:20:00,46.5,43.4,30.24,South,169,0.0,0.0,89,0.00,,,0.03,Wunderground v.1.13,2013-01-11 22:20:00,
2013-01-11 17:25:00,46.5,43.4,30.23,South,169,0.0,0.0,89,0.00,,,0.03,Wunderground v.1.13,2013-01-11 22:25:00,
2013-01-11 17:35:00,46.4,43.6,30.23,South,169,0.0,1.0,90,0.00,,,0.03,Wunderground v.1.13,2013-01-11 22:35:00,
2013-01-11 17:45:00,46.4,43.6,30.23,South,169,0.0,1.0,90,0.00,,,0.04,Wunderground v.1.13,2013-01-11 22:45:00,
2013-01-11 17:50:00,46.4,43.6,30.22,South,169,0.0,1.0,90,0.00,,,0.04,Wunderground v.1.13,2013-01-11 22:50:00,
2013-01-11 17:55:00,46.2,43.4,30.23,South,169,0.0,1.0,90,0.00,,,0.04,Wunderground v.1.13,2013-01-11 22:55:00,
2013-01-11 18:05:00,46.1,43.3,30.21,South,169,0.0,3.0,90,0.00,,,0.05,Wunderground v.1.13,2013-01-11 23:05:00,
2013-01-11 18:10:00,46.1,43.3,30.21,South,177,1.0,3.0,90,0.00,,,0.05,Wunderground v.1.13,2013-01-11 23:10:00,
2013-01-11 18:20:00,46.0,43.5,30.21,SE,142,0.0,5.0,91,0.00,,,0.06,Wunderground v.1.13,2013-01-11 23:20:00,
2013-01-11 18:25:00,45.8,43.3,30.20,SE,142,0.0,5.0,91,0.11,,,0.07,Wunderground v.1.13,2013-01-11 23:25:00,
2013-01-11 18:35:00,46.0,43.5,30.19,SE,142,0.0,3.0,91,0.09,,,0.08,Wunderground v.1.13,2013-01-11 23:35:00,
2013-01-11 18:40:00,46.1,43.6,30.18,ESE,113,1.0,3.0,91,0.07,,,0.08,Wunderground v.1.13,2013-01-11 23:40:00,
2013-01-11 18:50:00,46.2,43.7,30.18,ESE,121,2.0,2.0,91,0.14,,,0.10,Wunderground v.1.13,2013-01-11 23:50:00,
2013-01-11 18:55:00,46.5,44.0,30.18,SE,134,2.0,6.0,91,0.07,,,0.10,Wunderground v.1.13,2013-01-11 23:55:00,
2013-01-11 19:05:00,47.0,44.5,30.17,ESE,122,2.0,2.0,91,0.13,,,0.12,Wunderground v.1.13,2013-01-12 00:05:00,
2013-01-11 19:10:00,47.0,44.5,30.16,SSE,165,2.0,6.0,91,0.06,,,0.12,Wunderground v.1.13,2013-01-12 00:10:00,
2013-01-11 19:20:00,47.0,44.8,30.15,SSE,150,3.0,9.0,92,0.05,,,0.13,Wunderground v.1.13,2013-01-12 00:20:00,
2013-01-11 19:25:00,47.0,44.8,30.15,SE,124,3.0,9.0,92,0.07,,,0.14,Wunderground v.1.13,2013-01-12 00:25:00,
2013-01-11 19:30:00,47.1,44.9,30.15,ESE,123,3.0,3.0,92,0.06,,,0.14,Wunderground v.1.13,2013-01-12 00:30:00,
2013-01-11 19:40:00,47.0,44.8,30.14,South,172,3.0,9.0,92,0.14,,,0.16,Wunderground v.1.13,2013-01-12 00:40:00,
2013-01-11 19:45:00,47.0,44.8,30.15,SE,139,4.0,9.0,92,0.08,,,0.17,Wunderground v.1.13,2013-01-12 00:45:00,
2013-01-11 19:55:00,46.8,44.6,30.14,ESE,102,3.0,11.0,92,0.08,,,0.01,Wunderground v.1.13,2013-01-12 00:55:00,
2013-01-11 20:05:00,46.5,44.3,30.13,SSE,147,2.0,2.0,92,0.05,,,0.02,Wunderground v.1.13,2013-01-12 01:05:00,
2013-01-11 20:10:00,46.5,44.3,30.13,ESE,112,2.0,8.0,92,0.05,,,0.02,Wunderground v.1.13,2013-01-12 01:10:00,
2013-01-11 20:20:00,46.5,44.3,30.14,ESE,123,1.0,1.0,92,0.04,,,0.03,Wunderground v.1.13,2013-01-12 01:20:00,
2013-01-11 20:25:00,46.5,44.3,30.15,NW,307,2.0,7.0,92,0.21,,,0.05,Wunderground v.1.13,2013-01-12 01:25:00,
2013-01-11 20:35:00,46.8,44.9,30.17,NW,319,3.0,3.0,93,0.33,,,0.11,Wunderground v.1.13,2013-01-12 01:35:00,
2013-01-11 20:45:00,46.8,44.9,30.15,ESE,114,1.0,9.0,93,0.18,,,0.15,Wunderground v.1.13,2013-01-12 01:45:00,
2013-01-11 20:50:00,46.8,44.9,30.16,NNW,348,1.0,1.0,93,0.17,,,0.17,Wunderground v.1.13,2013-01-12 01:50:00,
2013-01-11 21:00:00,47.0,45.1,30.15,NNW,348,0.0,7.0,93,0.20,,,0.21,Wunderground v.1.13,2013-01-12 02:00:00,
2013-01-11 21:10:00,47.3,45.4,30.14,NNW,348,0.0,4.0,93,0.11,,,0.24,Wunderground v.1.13,2013-01-12 02:10:00,
2013-01-11 21:15:00,47.3,45.4,30.14,North,349,0.0,4.0,93,0.16,,,0.25,Wunderground v.1.13,2013-01-12 02:15:00,
2013-01-11 21:25:00,47.3,45.4,30.13,North,349,0.0,1.0,93,0.13,,,0.27,Wunderground v.1.13,2013-01-12 02:25:00,
2013-01-11 21:30:00,47.3,45.4,30.13,North,349,0.0,1.0,93,0.20,,,0.29,Wunderground v.1.13,2013-01-12 02:30:00,
2013-01-11 21:40:00,47.4,45.5,30.13,NE,47,0.0,0.0,93,0.18,,,0.31,Wunderground v.1.13,2013-01-12 02:40:00,
2013-01-11 21:50:00,47.6,45.7,30.13,NE,47,0.0,3.0,93,0.17,,,0.33,Wunderground v.1.13,2013-01-12 02:50:00,
2013-01-11 21:55:00,47.4,45.5,30.13,ENE,57,0.0,3.0,93,0.09,,,0.34,Wunderground v.1.13,2013-01-12 02:55:00,
2013-01-11 22:00:00,47.3,45.4,30.13,ENE,57,1.0,3.0,93,0.10,,,0.35,Wunderground v.1.13,2013-01-12 03:00:00,
2013-01-11 22:10:00,47.3,45.7,30.13,ENE,57,0.0,3.0,94,0.05,,,0.35,Wunderground v.1.13,2013-01-12 03:10:00,
2013-01-11 22:20:00,47.1,45.5,30.13,NNE,31,0.0,2.0,94,0.00,,,0.36,Wunderground v.1.13,2013-01-12 03:20:00,
2013-01-11 22:30:00,47.0,45.4,30.13,NE,36,1.0,2.0,94,0.00,,,0.36,Wunderground v.1.13,2013-01-12 03:30:00,
2013-01-11 22:35:00,46.8,45.2,30.13,NE,36,1.0,1.0,94,0.05,,,0.37,Wunderground v.1.13,2013-01-12 03:35:00,
2013-01-11 22:45:00,46.7,45.1,30.11,ENE,75,1.0,5.0,94,0.05,,,0.37,Wunderground v.1.13,2013-01-12 03:45:00,
2013-01-11 22:55:00,46.7,45.1,30.10,East,100,1.0,3.0,94,0.00,,,0.37,Wunderground v.1.13,2013-01-12 03:55:00,
2013-01-11 23:00:00,46.7,45.1,30.10,ESE,118,1.0,1.0,94,0.00,,,0.37,Wunderground v.1.13,2013-01-12 04:00:00,
2013-01-11 23:10:00,46.7,45.1,30.09,ESE,109,1.0,1.0,94,0.00,,,0.38,Wunderground v.1.13,2013-01-12 04:10:00,
2013-01-11 23:15:00,46.7,45.1,30.09,East,87,0.0,4.0,94,0.00,,,0.38,Wunderground v.1.13,2013-01-12 04:15:00,
2013-01-11 23:25:00,46.7,45.1,30.09,East,88,0.0,4.0,94,0.00,,,0.38,Wunderground v.1.13,2013-01-12 04:25:00,
2013-01-11 23:35:00,46.7,45.1,30.08,East,88,0.0,3.0,94,0.00,,,0.38,Wunderground v.1.13,2013-01-12 04:35:00,
2013-01-11 23:40:00,46.7,45.1,30.07,East,88,0.0,3.0,94,0.00,,,0.38,Wunderground v.1.13,2013-01-12 04:40:00,
2013-01-11 23:50:00,46.7,45.1,30.07,East,88,0.0,3.0,94,0.00,,,0.38,Wunderground v.1.13,2013-01-12 04:50:00,
2013-01-11 23:55:00,46.7,45.1,30.07,East,88,0.0,3.0,94,0.00,,,0.38,Wunderground v.1.13,2013-01-12 04:55:00,